Main page
METAR-TAF:

METAR-TAF

Airports :

Toncontín International Airport

Tegucigalpa, Honduras

latitude: 14-03N, longitude: 087-13W, elevation: 994 m

Current weather observation

The report was made 17 minutes ago, at 10:00 UTC
Wind 3 kt from the North
Temperature 22°C
Humidity 78%
Pressure 1017 hPa
Visibility: 8000 m
Scattered clouds at a height of 3000 ft

METAR: MHTG 161000Z 01003KT 8000 SCT030 22/18 Q1017 A3003 NOSIG

Time: 04:17 (10:17 UTC)

Forecast

The report was made 5 hours and 17 minutes ago, at 05:00 UTC
Forecast valid from 16 at 06 UTC to 17 at 06 UTC
Wind 4 kt from variable directions
Visibility 10 km or more
Scattered clouds at a height of 3000 ft
Becoming
from 16 at 16 UTC to 16 at 18 UTC
Wind 12 kt from the North/Northeast
Becoming
from 17 at 01 UTC to 17 at 03 UTC
Wind 5 kt from variable directions

TAF: MHTG 160500Z 1606/1706 VRB04KT 9999 SCT030 TX32/1620Z TN19/1612Z BECMG 1616/1618 03012KT BECMG 1701/1703 VRB05KT

Weather observations and forecasts of more than 4000 airports (METAR and TAF reports).

The available stations are represented by yellow and red dots on the map.

Hover mouse over dot to see the name of the station.

Then click to see weather observations and forecasts.

To change the map : click on the green buttons with a black cross to zoom in, on the green button with a dash to zoom out, or on the green arrows for adjacent maps.


METAR-TAF: